Time;durP1;ratioP1;P1;durP2;ratioP2;P2;SDS_P1;SDS_P2;PMS_P1;PMS_P2;Temp;Humidity;BMP_temperature;BMP_pressure;BME280_temperature;BME280_humidity;BME280_pressure;Samples;Min_cycle;Max_cycle;Signal;HPM_P1;HPM_P2
2022/07/01 00:01:58;;;;;;;10.40;8.40;;;19.90;1.00;;;;;;5056203;28;20413;-70
2022/07/01 00:04:27;;;;;;;11.13;8.70;;;19.90;1.00;;;;;;5036565;28;20418;-69
2022/07/01 00:06:56;;;;;;;9.70;8.70;;;19.90;1.00;;;;;;5035075;28;20199;-69
2022/07/01 00:09:22;;;;;;;10.93;7.70;;;19.90;1.00;;;;;;5052363;28;20464;-75
2022/07/01 00:11:48;;;;;;;12.93;8.07;;;20.00;1.00;;;;;;5055907;28;20874;-69
2022/07/01 00:14:14;;;;;;;10.23;9.20;;;19.90;1.00;;;;;;5040455;28;20430;-70
2022/07/01 00:16:40;;;;;;;10.37;9.00;;;19.90;1.00;;;;;;5035043;28;20413;-75
2022/07/01 00:19:06;;;;;;;11.20;8.97;;;19.90;1.00;;;;;;5048910;28;20465;-75
2022/07/01 00:21:33;;;;;;;12.53;9.60;;;19.90;1.00;;;;;;5055840;28;20639;-69
2022/07/01 00:23:58;;;;;;;10.07;9.13;;;20.00;1.00;;;;;;5043877;28;20426;-75
2022/07/01 00:26:25;;;;;;;10.37;9.17;;;20.00;1.00;;;;;;5035978;28;20960;-76
2022/07/01 00:28:50;;;;;;;9.53;8.57;;;20.00;1.00;;;;;;5034836;28;20188;-75
2022/07/01 00:31:16;;;;;;;9.67;8.67;;;19.90;1.00;;;;;;5038065;28;20846;-75
2022/07/01 00:33:42;;;;;;;11.70;8.10;;;20.00;1.00;;;;;;5055669;28;20207;-69
2022/07/01 00:36:07;;;;;;;10.03;9.13;;;20.00;1.00;;;;;;5054413;28;20187;-69
2022/07/01 00:38:33;;;;;;;12.37;10.60;;;20.00;1.00;;;;;;5034604;28;20253;-69
2022/07/01 00:40:59;;;;;;;10.07;9.07;;;20.00;1.00;;;;;;5035367;28;20175;-70
2022/07/01 00:43:25;;;;;;;11.03;9.20;;;20.00;1.00;;;;;;5053951;28;20254;-75
2022/07/01 00:45:51;;;;;;;10.47;9.40;;;20.00;1.00;;;;;;5047877;28;20679;-75
2022/07/01 00:48:19;;;;;;;10.70;9.67;;;20.10;1.00;;;;;;5034369;28;20411;-75
2022/07/01 00:50:46;;;;;;;10.80;9.80;;;20.10;1.00;;;;;;5039176;28;20413;-74
2022/07/01 00:53:13;;;;;;;9.27;8.40;;;20.10;1.00;;;;;;5054366;28;20417;-69
2022/07/01 00:55:40;;;;;;;9.37;8.33;;;20.10;1.00;;;;;;5052162;28;20413;-69
2022/07/01 00:58:07;;;;;;;10.63;9.53;;;20.20;1.00;;;;;;5034213;28;20398;-68
2022/07/01 01:00:32;;;;;;;14.03;9.77;;;20.00;1.00;;;;;;5034537;28;20417;-75
2022/07/01 01:02:58;;;;;;;11.50;9.60;;;19.90;1.00;;;;;;5054944;28;20410;-75
2022/07/01 01:05:25;;;;;;;14.23;8.60;;;19.90;1.00;;;;;;5051470;28;20199;-69
2022/07/01 01:07:51;;;;;;;13.67;9.30;;;20.00;1.00;;;;;;5033958;28;20422;-69
2022/07/01 01:10:17;;;;;;;10.13;9.23;;;20.10;1.00;;;;;;5036151;28;20445;-69
2022/07/01 01:12:43;;;;;;;10.90;9.77;;;20.20;1.00;;;;;;5055023;28;20404;-69
2022/07/01 01:15:10;;;;;;;10.47;9.47;;;20.30;1.00;;;;;;5054338;28;20949;-71
2022/07/01 01:17:37;;;;;;;11.20;9.93;;;20.30;1.00;;;;;;5033357;28;20430;-75
2022/07/01 01:20:03;;;;;;;10.37;9.37;;;20.30;1.00;;;;;;5033449;28;21014;-74
2022/07/01 01:22:29;;;;;;;11.90;10.00;;;20.30;1.00;;;;;;5052814;28;20500;-75
2022/07/01 01:24:57;;;;;;;13.03;9.23;;;20.40;1.00;;;;;;5054728;28;20401;-69
2022/07/01 01:27:23;;;;;;;11.27;9.50;;;20.40;1.00;;;;;;5036383;28;20286;-69
2022/07/01 01:29:48;;;;;;;9.83;8.70;;;20.50;1.00;;;;;;5034630;28;20514;-75
2022/07/01 01:32:14;;;;;;;10.50;9.03;;;20.50;1.00;;;;;;5040078;28;20187;-69
2022/07/01 01:34:40;;;;;;;10.20;9.20;;;20.50;1.00;;;;;;5032857;28;20210;-75
2022/07/01 01:37:07;;;;;;;11.87;9.30;;;20.50;1.00;;;;;;5046315;28;20298;-69
2022/07/01 01:39:33;;;;;;;10.70;9.77;;;20.50;1.00;;;;;;5054168;28;20610;-69
2022/07/01 01:42:00;;;;;;;9.23;8.33;;;20.50;1.00;;;;;;5042661;28;20541;-75
2022/07/01 01:44:26;;;;;;;10.40;9.40;;;20.50;1.00;;;;;;5034289;28;20194;-75
2022/07/01 01:46:52;;;;;;;10.40;8.63;;;20.50;1.00;;;;;;5041553;28;20453;-69
2022/07/01 01:49:18;;;;;;;11.17;10.00;;;20.40;1.00;;;;;;5053931;28;20421;-75
2022/07/01 01:51:43;;;;;;;10.90;9.80;;;20.40;1.00;;;;;;5044520;28;20179;-69
2022/07/01 01:54:09;;;;;;;10.03;9.23;;;20.40;1.00;;;;;;5033770;28;20547;-75
2022/07/01 01:56:35;;;;;;;10.20;9.20;;;20.40;1.00;;;;;;5039225;28;20194;-70
2022/07/01 01:59:00;;;;;;;11.13;10.00;;;20.40;1.00;;;;;;5053883;28;20202;-75
2022/07/01 02:01:26;;;;;;;11.00;9.90;;;20.20;1.00;;;;;;5045199;28;20190;-70
2022/07/01 02:03:53;;;;;;;12.47;9.63;;;20.10;1.00;;;;;;5033801;28;20221;-69
2022/07/01 02:06:20;;;;;;;12.53;11.00;;;20.10;7.10;;;;;;5040154;28;20256;-70
2022/07/01 02:08:46;;;;;;;12.90;11.60;;;20.10;42.80;;;;;;5052996;28;20479;-75
2022/07/01 02:11:12;;;;;;;12.10;10.80;;;20.10;60.60;;;;;;5048319;28;20910;-70
2022/07/01 02:13:38;;;;;;;13.60;11.13;;;20.10;85.70;;;;;;5033599;28;20193;-74
2022/07/01 02:16:04;;;;;;;13.60;10.40;;;20.20;95.30;;;;;;5037137;28;20179;-74
2022/07/01 02:18:32;;;;;;;13.20;11.63;;;20.20;99.90;;;;;;5032665;28;20910;-71
2022/07/01 02:20:58;;;;;;;13.07;11.43;;;20.20;99.90;;;;;;5033832;28;20468;-75
2022/07/01 02:23:24;;;;;;;13.23;11.60;;;20.30;99.90;;;;;;5033788;28;20498;-75
2022/07/01 02:25:49;;;;;;;13.60;11.27;;;20.30;99.90;;;;;;5034565;28;21248;-70
2022/07/01 02:28:16;;;;;;;13.00;11.03;;;20.20;99.90;;;;;;5043709;28;20540;-70
2022/07/01 02:30:42;;;;;;;12.40;11.20;;;20.20;99.90;;;;;;5033430;28;20191;-71
2022/07/01 02:33:08;;;;;;;12.87;11.37;;;20.10;99.90;;;;;;5032934;28;20418;-75
2022/07/01 02:35:36;;;;;;;13.83;12.43;;;20.20;99.90;;;;;;5053314;28;20413;-74
2022/07/01 02:38:02;;;;;;;14.77;11.80;;;20.10;99.90;;;;;;5051014;28;20505;-71
2022/07/01 02:40:28;;;;;;;13.70;11.80;;;20.00;99.90;;;;;;5033401;28;20452;-71
2022/07/01 02:42:54;;;;;;;13.30;12.00;;;20.00;99.90;;;;;;5032153;28;20418;-74
2022/07/01 02:45:19;;;;;;;16.47;12.70;;;20.10;99.90;;;;;;5051858;28;20183;-75
2022/07/01 02:47:45;;;;;;;15.33;13.03;;;20.10;99.90;;;;;;5051967;28;20627;-74
2022/07/01 02:50:12;;;;;;;17.87;12.10;;;20.10;99.90;;;;;;5035710;28;20195;-71
2022/07/01 02:52:40;;;;;;;12.47;11.00;;;20.10;99.90;;;;;;5033422;28;20623;-75
2022/07/01 02:55:08;;;;;;;13.40;11.90;;;20.10;99.90;;;;;;5048966;28;20425;-75
2022/07/01 02:57:34;;;;;;;12.40;11.20;;;20.00;99.90;;;;;;5052393;28;20397;-71
2022/07/01 03:00:00;;;;;;;13.47;12.07;;;20.00;99.90;;;;;;5038221;28;20437;-70
2022/07/01 03:02:26;;;;;;;12.23;10.97;;;20.00;99.90;;;;;;5033162;28;20427;-75
2022/07/01 03:04:53;;;;;;;14.00;11.53;;;20.00;99.90;;;;;;5044834;28;20495;-75
2022/07/01 03:07:19;;;;;;;17.80;13.00;;;20.00;99.90;;;;;;5051764;28;20198;-74
2022/07/01 03:09:45;;;;;;;15.03;12.53;;;20.10;99.90;;;;;;5041391;28;20437;-71
2022/07/01 03:12:24;;;;;;;12.23;10.93;;;20.00;99.90;;;;;;5033117;28;20501;-71
2022/07/01 03:15:12;;;;;;;14.40;11.33;;;20.00;99.90;;;;;;5036348;28;20175;-72
2022/07/01 03:17:40;;;;;;;15.03;13.10;;;20.00;99.90;;;;;;5035381;28;20926;-71
2022/07/01 03:20:11;;;;;;;16.00;11.87;;;20.00;99.90;;;;;;5037026;28;20430;-74
2022/07/01 03:22:37;;;;;;;13.07;11.77;;;20.00;99.90;;;;;;5037704;28;20421;-70
2022/07/01 03:25:04;;;;;;;14.23;12.07;;;20.00;99.90;;;;;;5035741;28;20429;-71
2022/07/01 03:27:30;;;;;;;14.27;11.97;;;20.10;99.90;;;;;;5037439;28;20453;-71
2022/07/01 03:29:56;;;;;;;16.20;11.27;;;20.00;99.90;;;;;;5056810;28;20437;-71
2022/07/01 03:32:22;;;;;;;16.90;12.00;;;20.10;99.90;;;;;;5056368;28;20527;-72
2022/07/01 03:34:50;;;;;;;14.07;12.20;;;20.10;99.90;;;;;;5036710;28;20194;-74
2022/07/01 03:37:16;;;;;;;14.60;12.40;;;20.10;99.90;;;;;;5035891;28;20171;-71
2022/07/01 03:39:43;;;;;;;13.80;12.13;;;20.10;99.90;;;;;;5055032;28;20444;-72
2022/07/01 03:42:10;;;;;;;13.53;12.13;;;20.00;99.90;;;;;;5056176;28;20459;-74
2022/07/01 03:44:36;;;;;;;14.40;12.10;;;19.90;99.90;;;;;;5038849;28;20465;-74
2022/07/01 03:47:05;;;;;;;13.47;12.07;;;19.90;99.90;;;;;;5035697;28;20536;-75
2022/07/01 03:49:31;;;;;;;13.70;12.30;;;20.00;99.90;;;;;;5052288;28;20535;-71
2022/07/01 03:51:57;;;;;;;15.17;12.37;;;20.10;99.90;;;;;;5056344;28;20397;-72
2022/07/01 03:57:17;;;;;;;15.83;12.40;;;20.20;99.90;;;;;;5034964;28;20179;-75
2022/07/01 03:59:43;;;;;;;12.83;11.57;;;20.20;99.90;;;;;;5052385;28;20444;-71
2022/07/01 04:02:09;;;;;;;13.67;11.97;;;20.20;99.90;;;;;;5055976;28;20186;-75
2022/07/01 04:04:35;;;;;;;13.77;11.70;;;20.20;99.90;;;;;;5040689;28;20171;-72
2022/07/01 04:07:03;;;;;;;14.90;13.43;;;20.30;99.90;;;;;;5035536;28;20206;-75
2022/07/01 04:09:30;;;;;;;13.17;11.93;;;20.20;99.90;;;;;;5049462;28;20514;-70
2022/07/01 04:11:57;;;;;;;13.10;11.70;;;20.20;99.90;;;;;;5056023;28;20400;-72
2022/07/01 04:14:26;;;;;;;17.43;13.07;;;20.20;99.90;;;;;;5043394;28;20418;-72
2022/07/01 04:16:53;;;;;;;15.17;10.97;;;20.30;99.90;;;;;;5034596;28;20480;-71
2022/07/01 04:19:19;;;;;;;15.33;12.50;;;20.20;99.90;;;;;;5046578;28;20504;-71
2022/07/01 04:24:32;;;;;;;12.97;11.73;;;20.10;99.90;;;;;;5039741;28;20424;-75
2022/07/01 04:26:58;;;;;;;13.87;11.13;;;20.10;99.90;;;;;;5034785;28;20557;-75
2022/07/01 04:29:24;;;;;;;12.40;10.97;;;20.10;99.90;;;;;;5047722;28;20528;-72
2022/07/01 04:31:50;;;;;;;13.83;10.63;;;20.10;99.90;;;;;;5055882;28;20492;-76
2022/07/01 04:34:15;;;;;;;12.43;11.13;;;20.10;99.90;;;;;;5042575;28;20172;-76
2022/07/01 04:36:41;;;;;;;13.33;11.00;;;20.00;99.90;;;;;;5033791;28;20190;-71
2022/07/01 04:39:07;;;;;;;13.37;11.97;;;19.90;99.90;;;;;;5054447;28;20494;-76
2022/07/01 04:44:18;;;;;;;16.37;9.57;;;19.90;99.90;;;;;;5035417;28;20229;-71
2022/07/01 04:46:43;;;;;;;11.00;9.90;;;19.90;99.90;;;;;;5037304;28;20453;-75
2022/07/01 04:49:09;;;;;;;10.30;9.20;;;19.80;99.90;;;;;;5054099;28;20205;-75
2022/07/01 04:51:35;;;;;;;12.27;9.33;;;19.70;99.90;;;;;;5052545;28;20179;-72
2022/07/01 04:54:05;;;;;;;11.17;8.93;;;19.70;99.90;;;;;;5054921;28;20266;-75
2022/07/01 04:56:32;;;;;;;10.00;7.90;;;19.70;99.90;;;;;;5053540;28;20174;-74
2022/07/01 04:58:58;;;;;;;8.77;8.03;;;19.60;99.90;;;;;;5034904;28;20437;-72
2022/07/01 05:01:24;;;;;;;10.00;8.70;;;19.60;99.90;;;;;;5035541;28;20873;-75
2022/07/01 05:03:50;;;;;;;7.63;6.83;;;19.50;99.90;;;;;;5053695;28;20175;-75
2022/07/01 05:06:16;;;;;;;8.90;8.00;;;19.50;99.90;;;;;;5054875;28;20205;-71
2022/07/01 05:08:42;;;;;;;9.60;8.60;;;19.50;99.90;;;;;;5036584;28;20783;-73
2022/07/01 05:11:08;;;;;;;12.63;8.10;;;19.50;99.90;;;;;;5034450;28;20402;-72
2022/07/01 05:13:34;;;;;;;8.73;7.77;;;19.40;99.90;;;;;;5048900;28;20190;-75
2022/07/01 05:16:00;;;;;;;8.13;7.33;;;19.40;99.90;;;;;;5053535;28;20194;-75
2022/07/01 05:23:55;;;;;;;7.90;7.10;;;19.30;99.90;;;;;;5051764;28;20424;-71
2022/07/01 05:26:20;;;;;;;8.40;7.70;;;19.40;99.90;;;;;;5054218;28;20453;-74
2022/07/01 05:28:47;;;;;;;10.40;8.20;;;19.50;99.90;;;;;;5037827;28;20286;-75
2022/07/01 05:31:13;;;;;;;8.20;7.40;;;19.70;99.90;;;;;;5034112;28;20179;-75
2022/07/01 05:33:39;;;;;;;9.07;8.20;;;19.80;99.90;;;;;;5048401;28;20425;-71
2022/07/01 05:36:05;;;;;;;7.73;6.93;;;19.90;99.90;;;;;;5054529;28;20902;-74
2022/07/01 05:38:31;;;;;;;8.03;7.23;;;19.90;99.90;;;;;;5036833;28;20450;-74
2022/07/01 05:40:57;;;;;;;9.60;8.60;;;20.00;99.90;;;;;;5034136;28;20410;-74
2022/07/01 05:43:23;;;;;;;6.40;5.80;;;19.80;99.90;;;;;;5048471;28;20257;-75
2022/07/01 05:45:48;;;;;;;8.13;6.47;;;19.80;99.90;;;;;;5054365;28;20647;-75
2022/07/01 05:48:14;;;;;;;8.17;5.37;;;19.80;99.90;;;;;;5038581;28;20179;-74
2022/07/01 05:50:40;;;;;;;7.57;5.00;;;19.50;99.90;;;;;;5034184;28;20563;-74
2022/07/01 05:53:06;;;;;;;9.47;4.70;;;19.30;99.90;;;;;;5037308;28;20692;-72
2022/07/01 05:55:32;;;;;;;10.27;5.13;;;19.20;99.90;;;;;;5034060;28;20583;-76
2022/07/01 05:57:57;;;;;;;8.80;5.80;;;19.10;99.90;;;;;;5032319;28;20479;-70
2022/07/01 06:00:23;;;;;;;10.77;5.50;;;19.00;99.90;;;;;;5034059;28;20192;-75
2022/07/01 06:02:49;;;;;;;8.93;6.27;;;18.90;99.90;;;;;;5045289;28;20225;-75
2022/07/01 06:05:14;;;;;;;12.80;5.83;;;18.80;99.90;;;;;;5053718;28;20221;-76
2022/07/01 06:07:41;;;;;;;9.43;5.70;;;18.80;99.90;;;;;;5042916;28;20254;-71
2022/07/01 06:10:09;;;;;;;9.10;5.60;;;18.80;99.90;;;;;;5033596;28;20270;-76
2022/07/01 06:12:36;;;;;;;7.27;5.50;;;18.80;99.90;;;;;;5042158;28;20806;-75
2022/07/01 06:15:02;;;;;;;7.50;5.70;;;18.80;99.90;;;;;;5052615;28;20410;-70
2022/07/01 06:17:28;;;;;;;11.57;6.50;;;18.60;99.90;;;;;;5045499;28;20583;-72
2022/07/01 06:19:53;;;;;;;6.70;4.73;;;18.60;99.90;;;;;;5033572;28;20509;-72
2022/07/01 06:22:20;;;;;;;11.10;5.40;;;18.60;99.90;;;;;;5034661;28;20620;-71
2022/07/01 06:24:47;;;;;;;9.37;5.13;;;18.60;99.90;;;;;;5054725;28;20556;-72
2022/07/01 06:27:13;;;;;;;12.80;4.37;;;18.60;99.90;;;;;;5033219;28;20813;-75
2022/07/01 06:29:39;;;;;;;9.83;5.30;;;18.40;99.90;;;;;;5033889;28;20442;-74
2022/07/01 06:32:05;;;;;;;6.87;4.43;;;18.50;99.90;;;;;;5033670;28;20756;-71
2022/07/01 06:34:31;;;;;;;8.80;4.90;;;18.50;99.90;;;;;;5032406;28;20425;-75
2022/07/01 06:37:00;;;;;;;8.97;6.47;;;18.50;99.90;;;;;;5031293;28;20426;-71
2022/07/01 06:39:26;;;;;;;6.63;5.93;;;18.50;99.90;;;;;;5032056;28;20195;-72
2022/07/01 06:41:52;;;;;;;9.40;6.67;;;18.40;99.90;;;;;;5052568;28;20976;-72
2022/07/01 06:44:17;;;;;;;15.13;7.10;;;18.40;99.90;;;;;;5037113;28;20430;-71
2022/07/01 06:46:43;;;;;;;7.60;5.20;;;18.30;99.90;;;;;;5032291;28;20191;-72
2022/07/01 06:49:09;;;;;;;7.63;5.93;;;18.20;99.90;;;;;;5033124;28;20221;-73
2022/07/01 06:51:35;;;;;;;15.17;6.13;;;18.10;99.90;;;;;;5035346;28;20426;-71
2022/07/01 06:54:00;;;;;;;7.13;5.23;;;18.00;99.90;;;;;;5053195;28;20199;-71
2022/07/01 06:56:26;;;;;;;8.10;5.30;;;17.90;99.90;;;;;;5053087;28;20257;-76
2022/07/01 06:58:52;;;;;;;7.33;5.73;;;17.90;99.90;;;;;;5052647;28;20261;-70
2022/07/01 07:01:17;;;;;;;5.97;5.37;;;17.80;99.90;;;;;;5053199;28;20536;-69
2022/07/01 07:03:43;;;;;;;8.13;5.27;;;17.80;99.90;;;;;;5053037;28;20650;-69
2022/07/01 07:06:09;;;;;;;8.13;4.97;;;17.80;99.90;;;;;;5052586;28;20587;-69
2022/07/01 07:08:35;;;;;;;4.00;3.70;;;17.80;99.90;;;;;;5052231;28;20201;-74
2022/07/01 07:11:00;;;;;;;6.60;3.77;;;17.70;99.90;;;;;;5053315;28;20173;-71
2022/07/01 07:13:26;;;;;;;7.10;4.07;;;17.60;99.90;;;;;;5053269;28;20191;-73
2022/07/01 07:15:52;;;;;;;5.43;3.40;;;17.50;99.90;;;;;;5052960;28;20613;-73
2022/07/01 07:18:17;;;;;;;5.37;2.60;;;17.50;99.90;;;;;;5050537;28;20190;-71
2022/07/01 07:20:43;;;;;;;4.67;3.40;;;17.40;99.90;;;;;;5053184;28;20171;-77
2022/07/01 07:23:09;;;;;;;5.70;2.90;;;17.40;99.90;;;;;;5052946;28;20625;-77
2022/07/01 07:25:35;;;;;;;9.57;5.33;;;17.30;99.90;;;;;;5052551;28;20167;-68
2022/07/01 07:28:01;;;;;;;6.90;3.47;;;17.20;99.90;;;;;;5051958;28;20407;-73
2022/07/01 07:30:27;;;;;;;4.53;2.50;;;17.10;99.90;;;;;;5052999;28;20416;-68
2022/07/01 07:32:52;;;;;;;4.90;1.80;;;17.20;99.90;;;;;;5040458;28;20183;-74
2022/07/01 07:35:18;;;;;;;2.23;2.03;;;17.00;99.90;;;;;;5032951;28;20198;-74
2022/07/01 07:37:45;;;;;;;2.80;1.80;;;16.80;99.90;;;;;;5033147;28;20259;-74
2022/07/01 07:40:12;;;;;;;7.27;2.33;;;16.80;99.90;;;;;;5032729;28;20187;-75
2022/07/01 07:42:39;;;;;;;4.67;1.90;;;16.70;99.90;;;;;;5032949;28;20403;-67
2022/07/01 07:45:11;;;;;;;2.80;2.10;;;16.70;99.90;;;;;;5032640;28;20407;-66
2022/07/01 07:47:37;;;;;;;5.20;2.00;;;16.70;99.90;;;;;;5030610;28;20461;-76
2022/07/01 07:50:04;;;;;;;2.07;1.67;;;16.80;99.90;;;;;;5032692;28;20418;-67
2022/07/01 07:52:30;;;;;;;6.03;2.60;;;16.80;99.90;;;;;;5032747;28;20410;-67
2022/07/01 07:54:56;;;;;;;2.93;1.50;;;16.80;99.90;;;;;;5033078;28;20420;-66
2022/07/01 07:57:22;;;;;;;5.43;1.60;;;16.80;99.90;;;;;;5032065;28;20943;-77
2022/07/01 07:59:48;;;;;;;2.53;1.40;;;16.90;99.90;;;;;;5032696;28;20196;-76
2022/07/01 08:02:14;;;;;;;1.93;1.53;;;16.80;99.90;;;;;;5032963;28;20625;-74
2022/07/01 08:04:39;;;;;;;2.90;1.47;;;16.80;99.90;;;;;;5036106;28;20172;-67
2022/07/01 08:07:05;;;;;;;4.00;2.03;;;16.80;99.90;;;;;;5033994;28;20458;-66
2022/07/01 08:09:34;;;;;;;2.53;1.40;;;16.80;99.90;;;;;;5034774;28;20278;-75
2022/07/01 08:12:03;;;;;;;2.40;1.40;;;16.90;99.90;;;;;;5035967;28;20168;-66
2022/07/01 08:14:29;;;;;;;3.30;1.50;;;16.90;99.90;;;;;;5035922;28;20911;-75
2022/07/01 08:16:55;;;;;;;1.77;1.47;;;16.80;99.90;;;;;;5035215;28;20436;-75
2022/07/01 08:19:21;;;;;;;3.47;2.23;;;16.90;99.90;;;;;;5035561;28;20493;-66
2022/07/01 08:21:47;;;;;;;3.53;1.50;;;16.90;99.90;;;;;;5036231;28;20414;-66
2022/07/01 08:24:13;;;;;;;1.63;1.40;;;17.00;99.90;;;;;;5036118;28;20513;-66
2022/07/01 08:26:38;;;;;;;1.90;1.27;;;16.90;99.90;;;;;;5034931;28;20302;-75
2022/07/01 08:29:04;;;;;;;2.80;1.30;;;16.80;99.90;;;;;;5035732;28;20191;-77
2022/07/01 08:31:31;;;;;;;1.73;1.30;;;16.80;99.90;;;;;;5035752;28;20175;-66
2022/07/01 08:33:57;;;;;;;2.40;1.10;;;16.80;99.90;;;;;;5035534;28;20163;-67
2022/07/01 08:36:23;;;;;;;4.10;1.67;;;16.80;99.90;;;;;;5034265;28;20413;-66
2022/07/01 08:38:49;;;;;;;4.37;1.47;;;16.90;99.90;;;;;;5034940;28;20491;-75
2022/07/01 08:41:15;;;;;;;2.53;1.50;;;17.00;99.90;;;;;;5035745;28;20163;-76
2022/07/01 08:43:41;;;;;;;1.93;1.60;;;17.00;99.90;;;;;;5035544;28;20414;-75
2022/07/01 08:46:08;;;;;;;1.70;1.23;;;17.20;99.90;;;;;;5035500;28;20496;-66
2022/07/01 08:48:34;;;;;;;2.13;1.70;;;17.50;99.90;;;;;;5034498;28;20215;-65
2022/07/01 08:51:03;;;;;;;2.67;1.47;;;17.70;99.90;;;;;;5035436;28;20406;-65
2022/07/01 08:53:30;;;;;;;3.03;2.83;;;17.80;99.90;;;;;;5035064;28;20395;-74
2022/07/01 08:58:40;;;;;;;1.30;1.20;;;17.90;99.90;;;;;;5034672;28;20452;-66
2022/07/01 09:01:24;;;;;;;2.33;1.47;;;18.10;99.90;;;;;;5042915;28;20449;-74
2022/07/01 09:03:55;;;;;;;2.27;1.60;;;18.10;99.90;;;;;;5055057;28;20178;-74
2022/07/01 09:06:22;;;;;;;2.37;1.23;;;18.10;99.90;;;;;;5043778;28;20854;-74
2022/07/01 09:08:48;;;;;;;4.23;1.63;;;18.10;99.90;;;;;;5034015;28;20426;-73
2022/07/01 09:11:19;;;;;;;1.87;1.77;;;18.20;99.90;;;;;;5042610;28;20433;-72
2022/07/01 09:14:06;;;;;;;2.70;1.50;;;18.40;99.90;;;;;;5040794;28;20917;-65
2022/07/01 09:16:46;;;;;;;5.83;1.17;;;18.50;99.90;;;;;;5050282;28;20448;-74
2022/07/01 09:19:13;;;;;;;2.37;1.40;;;18.20;99.90;;;;;;5034597;28;20437;-75
2022/07/01 09:21:40;;;;;;;5.00;1.47;;;18.40;99.90;;;;;;5038963;28;20425;-65
2022/07/01 09:24:39;;;;;;;3.20;1.60;;;18.40;99.90;;;;;;5054770;28;20393;-74
2022/07/01 09:27:16;;;;;;;3.27;1.57;;;18.30;99.90;;;;;;5045788;28;20473;-74
2022/07/01 09:29:46;;;;;;;1.73;1.20;;;18.20;99.90;;;;;;5034155;28;20508;-66
2022/07/01 09:32:14;;;;;;;1.77;1.07;;;18.30;99.90;;;;;;5048621;28;20409;-65
2022/07/01 09:34:44;;;;;;;1.20;1.10;;;18.40;99.90;;;;;;5054566;28;20425;-75
2022/07/01 09:37:14;;;;;;;8.73;1.33;;;18.40;99.90;;;;;;5039358;28;20792;-65
2022/07/01 09:39:47;;;;;;;3.77;2.57;;;18.10;99.90;;;;;;5054469;28;20475;-74
2022/07/01 09:42:14;;;;;;;1.60;1.50;;;18.10;99.90;;;;;;5053263;28;20964;-65
2022/07/01 09:44:55;;;;;;;1.63;1.30;;;18.20;99.90;;;;;;5054425;28;20879;-65
2022/07/01 09:47:26;;;;;;;2.70;1.47;;;18.20;99.90;;;;;;5038930;28;20970;-72
2022/07/01 09:49:52;;;;;;;2.27;1.33;;;18.20;99.90;;;;;;5033862;28;20799;-75
2022/07/01 09:52:19;;;;;;;2.03;1.40;;;18.20;99.90;;;;;;5037319;28;20794;-74
2022/07/01 09:54:49;;;;;;;3.93;1.57;;;18.20;99.90;;;;;;5034364;28;20399;-65
2022/07/01 09:57:15;;;;;;;1.33;1.20;;;18.10;99.90;;;;;;5033024;28;20465;-72
2022/07/01 09:59:41;;;;;;;1.73;1.37;;;18.30;99.90;;;;;;5049540;28;20524;-71
2022/07/01 10:02:09;;;;;;;2.10;1.63;;;18.40;99.90;;;;;;5053979;28;20409;-74
2022/07/01 10:04:42;;;;;;;3.00;1.40;;;18.50;99.90;;;;;;5039168;28;20476;-73
2022/07/01 10:07:48;;;;;;;3.27;1.30;;;18.50;99.90;;;;;;5034502;28;20457;-73
2022/07/01 10:10:14;;;;;;;1.50;1.40;;;18.40;99.90;;;;;;5053462;28;20437;-73
2022/07/01 10:12:43;;;;;;;2.70;1.20;;;18.40;99.90;;;;;;5047395;28;20984;-73
2022/07/01 10:15:11;;;;;;;2.50;1.17;;;18.50;99.90;;;;;;5034226;28;20171;-73
2022/07/01 10:17:43;;;;;;;1.00;0.80;;;18.30;99.90;;;;;;5037619;28;20487;-72
2022/07/01 10:20:17;;;;;;;1.10;1.00;;;18.40;99.90;;;;;;5053658;28;20432;-69
2022/07/01 10:22:45;;;;;;;1.60;0.97;;;18.20;93.00;;;;;;5051605;28;20432;-72
2022/07/01 10:25:38;;;;;;;1.53;1.30;;;18.10;99.90;;;;;;5042269;28;20409;-65
2022/07/01 10:28:13;;;;;;;2.07;1.10;;;18.00;98.00;;;;;;5052532;28;20417;-65
2022/07/01 10:31:05;;;;;;;2.40;1.27;;;17.90;97.00;;;;;;5052758;28;20447;-65
2022/07/01 10:33:49;;;;;;;2.37;1.40;;;17.80;97.70;;;;;;5053224;28;20940;-72
2022/07/01 10:36:22;;;;;;;6.23;1.43;;;17.80;97.40;;;;;;5040661;28;20505;-65
2022/07/01 10:39:03;;;;;;;2.90;1.47;;;17.80;88.20;;;;;;5031603;28;20421;-65
2022/07/01 10:41:34;;;;;;;1.30;1.13;;;17.80;86.60;;;;;;5046708;28;20405;-65
2022/07/01 10:44:04;;;;;;;4.40;1.30;;;17.80;86.60;;;;;;5053222;28;20476;-65
2022/07/01 10:46:44;;;;;;;1.70;1.03;;;17.80;81.20;;;;;;5038700;28;20580;-72
2022/07/01 10:49:40;;;;;;;1.40;1.00;;;17.70;79.90;;;;;;5033398;28;20418;-65
2022/07/01 10:52:11;;;;;;;2.67;1.37;;;17.70;86.50;;;;;;5050766;28;20822;-73
2022/07/01 10:54:40;;;;;;;1.30;1.20;;;17.80;93.80;;;;;;5053304;28;20762;-65
2022/07/01 10:57:23;;;;;;;2.30;1.60;;;17.90;99.30;;;;;;5034864;28;20422;-72
2022/07/01 10:59:49;;;;;;;1.30;1.20;;;17.80;86.70;;;;;;5033993;28;20422;-72
2022/07/01 11:02:17;;;;;;;2.63;1.20;;;17.70;83.30;;;;;;5034867;28;20414;-65
2022/07/01 11:04:43;;;;;;;2.93;1.60;;;17.70;86.50;;;;;;5033399;28;20649;-66
2022/07/01 11:07:09;;;;;;;1.57;1.10;;;17.70;67.70;;;;;;5032287;28;20456;-72
2022/07/01 11:09:35;;;;;;;2.30;1.50;;;17.60;72.70;;;;;;5033008;28;20441;-71
2022/07/01 11:12:01;;;;;;;1.53;1.30;;;17.60;73.80;;;;;;5033027;28;20414;-65
2022/07/01 11:14:27;;;;;;;2.60;1.83;;;17.60;79.50;;;;;;5033432;28;20172;-72
2022/07/01 11:16:56;;;;;;;3.40;1.87;;;17.60;86.50;;;;;;5034280;28;20418;-72
2022/07/01 11:19:24;;;;;;;4.40;1.43;;;17.50;87.00;;;;;;5032559;28;20536;-72
2022/07/01 11:21:53;;;;;;;1.47;1.27;;;17.50;91.70;;;;;;5051055;28;20795;-72
2022/07/01 11:24:20;;;;;;;2.43;1.80;;;17.60;96.90;;;;;;5052656;28;20401;-72
2022/07/01 11:26:45;;;;;;;3.00;1.53;;;17.60;99.90;;;;;;5032879;28;20450;-72
2022/07/01 11:29:12;;;;;;;1.83;1.50;;;17.50;99.90;;;;;;5031278;28;20969;-65
2022/07/01 11:31:38;;;;;;;2.90;2.57;;;17.40;99.90;;;;;;5034560;28;20187;-66
2022/07/01 11:34:05;;;;;;;4.37;2.27;;;17.40;99.90;;;;;;5032278;28;20395;-66
2022/07/01 11:39:23;;;;;;;6.53;1.83;;;17.40;99.90;;;;;;5056545;28;20925;-72
2022/07/01 11:42:02;;;;;;;4.10;1.57;;;17.40;99.90;;;;;;5038609;28;20417;-71
2022/07/01 11:44:43;;;;;;;1.83;1.37;;;17.20;99.90;;;;;;5036281;28;20475;-72
2022/07/01 11:47:12;;;;;;;4.10;1.60;;;17.10;99.90;;;;;;5054492;28;20977;-66
2022/07/01 11:49:46;;;;;;;2.73;2.53;;;17.10;99.90;;;;;;5056034;28;20458;-72
2022/07/01 11:52:12;;;;;;;3.13;1.67;;;17.10;99.90;;;;;;5036500;28;20410;-66
2022/07/01 11:54:39;;;;;;;3.23;1.80;;;17.20;99.90;;;;;;5036074;28;20410;-72
2022/07/01 11:57:09;;;;;;;4.80;1.87;;;17.20;99.90;;;;;;5052694;28;20421;-67
2022/07/01 11:59:38;;;;;;;5.10;1.63;;;17.20;99.90;;;;;;5055942;28;20976;-67
2022/07/01 12:02:05;;;;;;;2.60;1.97;;;17.20;99.90;;;;;;5037476;28;20871;-66
2022/07/01 12:04:31;;;;;;;2.30;1.60;;;17.20;99.90;;;;;;5035878;28;20472;-72
2022/07/01 12:06:58;;;;;;;7.97;1.90;;;17.10;99.90;;;;;;5034905;28;20867;-67
2022/07/01 12:09:25;;;;;;;4.07;2.83;;;17.00;99.90;;;;;;5035817;28;20422;-73
2022/07/01 12:11:52;;;;;;;3.20;1.33;;;17.00;99.90;;;;;;5036090;28;20464;-73
2022/07/01 12:14:29;;;;;;;3.57;1.50;;;16.90;99.90;;;;;;5035705;28;20403;-66
2022/07/01 12:17:00;;;;;;;2.20;1.27;;;17.00;99.90;;;;;;5034920;28;20406;-74
2022/07/01 12:19:29;;;;;;;4.60;1.53;;;17.00;99.90;;;;;;5035516;28;20450;-73
2022/07/01 12:22:00;;;;;;;3.73;1.57;;;17.10;99.90;;;;;;5035588;28;20434;-73
2022/07/01 12:24:26;;;;;;;3.00;1.40;;;17.00;99.90;;;;;;5035137;28;20403;-70
2022/07/01 12:27:12;;;;;;;1.87;1.23;;;17.10;99.90;;;;;;5034740;28;20442;-65
2022/07/01 12:29:47;;;;;;;4.23;1.80;;;17.10;99.90;;;;;;5035379;28;20434;-66
2022/07/01 12:32:15;;;;;;;1.37;1.27;;;17.00;99.90;;;;;;5035470;28;20882;-66
2022/07/01 12:34:43;;;;;;;3.43;1.83;;;16.80;99.90;;;;;;5035386;28;20887;-66
2022/07/01 12:37:14;;;;;;;2.60;2.37;;;16.80;99.90;;;;;;5034450;28;20911;-73
2022/07/01 12:39:56;;;;;;;7.10;1.27;;;16.80;99.90;;;;;;5035136;28;20449;-65
2022/07/01 12:42:30;;;;;;;2.57;1.37;;;16.90;99.90;;;;;;5035301;28;20398;-73
2022/07/01 12:45:04;;;;;;;1.43;1.33;;;16.80;99.90;;;;;;5035310;28;20402;-73
2022/07/01 12:47:32;;;;;;;1.80;1.57;;;16.80;99.90;;;;;;5034232;28;20449;-73
2022/07/01 12:50:19;;;;;;;8.20;1.80;;;16.90;99.90;;;;;;5033999;28;20414;-73
2022/07/01 12:53:05;;;;;;;1.80;1.70;;;16.90;99.90;;;;;;5035000;28;20397;-73
2022/07/01 12:55:36;;;;;;;3.00;1.60;;;17.00;99.90;;;;;;5035124;28;20746;-69
2022/07/01 12:58:04;;;;;;;2.70;1.90;;;17.00;99.90;;;;;;5033808;28;20402;-65
2022/07/01 13:00:31;;;;;;;1.73;1.63;;;16.90;99.90;;;;;;5033839;28;20404;-65
2022/07/01 13:02:59;;;;;;;3.80;2.07;;;17.00;99.90;;;;;;5034894;28;20402;-68
2022/07/01 13:05:25;;;;;;;4.23;2.33;;;17.10;99.90;;;;;;5034851;28;20895;-73
2022/07/01 13:07:51;;;;;;;2.47;2.27;;;17.00;99.90;;;;;;5033792;28;20453;-73